sensor_id;sensor_type;location;lat;lon;timestamp;temperature;humidity
69715;HTU21D;56981;53.532;49.398;2022-10-17T00:00:21;1.97;86.83
69715;HTU21D;56981;53.532;49.398;2022-10-17T00:02:56;1.92;87.25
69715;HTU21D;56981;53.532;49.398;2022-10-17T00:05:28;1.92;87.73
69715;HTU21D;56981;53.532;49.398;2022-10-17T00:08:02;1.94;88.11
69715;HTU21D;56981;53.532;49.398;2022-10-17T00:10:33;1.91;88.30
69715;HTU21D;56981;53.532;49.398;2022-10-17T00:13:06;1.86;88.23
69715;HTU21D;56981;53.532;49.398;2022-10-17T00:15:37;1.85;88.12
69715;HTU21D;56981;53.532;49.398;2022-10-17T00:18:08;1.88;87.95
69715;HTU21D;56981;53.532;49.398;2022-10-17T00:20:41;1.90;87.95
69715;HTU21D;56981;53.532;49.398;2022-10-17T00:23:12;1.88;88.09
69715;HTU21D;56981;53.532;49.398;2022-10-17T00:25:44;1.87;87.80
69715;HTU21D;56981;53.532;49.398;2022-10-17T00:28:15;1.87;87.58
69715;HTU21D;56981;53.532;49.398;2022-10-17T00:30:55;1.88;87.15
69715;HTU21D;56981;53.532;49.398;2022-10-17T00:33:27;1.86;87.10
69715;HTU21D;56981;53.532;49.398;2022-10-17T00:36:04;1.86;87.29
69715;HTU21D;56981;53.532;49.398;2022-10-17T00:38:35;1.90;87.24
69715;HTU21D;56981;53.532;49.398;2022-10-17T00:41:08;1.91;87.65
69715;HTU21D;56981;53.532;49.398;2022-10-17T00:44:05;1.87;87.85
69715;HTU21D;56981;53.532;49.398;2022-10-17T00:46:38;1.84;87.90
69715;HTU21D;56981;53.532;49.398;2022-10-17T00:49:10;1.87;87.30
69715;HTU21D;56981;53.532;49.398;2022-10-17T00:51:46;1.85;87.40
69715;HTU21D;56981;53.532;49.398;2022-10-17T00:54:22;1.84;87.51
69715;HTU21D;56981;53.532;49.398;2022-10-17T00:56:55;1.82;87.38
69715;HTU21D;56981;53.532;49.398;2022-10-17T00:59:27;1.80;87.19
69715;HTU21D;56981;53.532;49.398;2022-10-17T01:02:04;1.76;87.98
69715;HTU21D;56981;53.532;49.398;2022-10-17T01:04:41;1.78;87.78
69715;HTU21D;56981;53.532;49.398;2022-10-17T01:07:13;1.81;88.14
69715;HTU21D;56981;53.532;49.398;2022-10-17T01:09:45;1.81;87.89
69715;HTU21D;56981;53.532;49.398;2022-10-17T01:15:17;1.79;87.54
69715;HTU21D;56981;53.532;49.398;2022-10-17T01:34:57;1.76;87.38
69715;HTU21D;56981;53.532;49.398;2022-10-17T01:37:33;1.77;87.61
69715;HTU21D;56981;53.532;49.398;2022-10-17T01:40:19;1.83;87.21
69715;HTU21D;56981;53.532;49.398;2022-10-17T01:43:47;1.82;86.70
69715;HTU21D;56981;53.532;49.398;2022-10-17T01:46:24;1.78;86.77
69715;HTU21D;56981;53.532;49.398;2022-10-17T01:48:54;1.75;86.32
69715;HTU21D;56981;53.532;49.398;2022-10-17T01:51:46;1.72;87.44
69715;HTU21D;56981;53.532;49.398;2022-10-17T01:54:46;1.75;87.40
69715;HTU21D;56981;53.532;49.398;2022-10-17T01:57:42;1.73;87.48
69715;HTU21D;56981;53.532;49.398;2022-10-17T02:00:20;1.75;87.15
69715;HTU21D;56981;53.532;49.398;2022-10-17T02:02:57;1.73;86.46
69715;HTU21D;56981;53.532;49.398;2022-10-17T02:05:35;1.73;87.27
69715;HTU21D;56981;53.532;49.398;2022-10-17T02:08:08;1.75;87.05
69715;HTU21D;56981;53.532;49.398;2022-10-17T02:11:10;1.71;87.19
69715;HTU21D;56981;53.532;49.398;2022-10-17T02:21:50;1.67;87.36
69715;HTU21D;56981;53.532;49.398;2022-10-17T02:30:19;1.75;87.91
69715;HTU21D;56981;53.532;49.398;2022-10-17T02:33:13;1.80;88.35
69715;HTU21D;56981;53.532;49.398;2022-10-17T02:35:51;1.86;88.66
69715;HTU21D;56981;53.532;49.398;2022-10-17T02:38:24;1.95;88.76
69715;HTU21D;56981;53.532;49.398;2022-10-17T02:40:57;2.06;88.75
69715;HTU21D;56981;53.532;49.398;2022-10-17T02:43:29;2.12;88.44
69715;HTU21D;56981;53.532;49.398;2022-10-17T02:46:00;2.17;88.16
69715;HTU21D;56981;53.532;49.398;2022-10-17T02:48:41;2.25;88.08
69715;HTU21D;56981;53.532;49.398;2022-10-17T02:51:43;2.35;88.23
69715;HTU21D;56981;53.532;49.398;2022-10-17T02:54:21;2.49;88.44
69715;HTU21D;56981;53.532;49.398;2022-10-17T02:56:58;2.58;88.43
69715;HTU21D;56981;53.532;49.398;2022-10-17T02:59:32;2.67;87.67
69715;HTU21D;56981;53.532;49.398;2022-10-17T03:02:05;2.73;87.43
69715;HTU21D;56981;53.532;49.398;2022-10-17T03:04:37;2.82;87.77
69715;HTU21D;56981;53.532;49.398;2022-10-17T03:07:08;2.89;88.06
69715;HTU21D;56981;53.532;49.398;2022-10-17T03:09:39;2.99;88.48
69715;HTU21D;56981;53.532;49.398;2022-10-17T03:12:11;3.08;88.66
69715;HTU21D;56981;53.532;49.398;2022-10-17T03:14:42;3.10;88.86
69715;HTU21D;56981;53.532;49.398;2022-10-17T03:17:13;3.18;88.88
69715;HTU21D;56981;53.532;49.398;2022-10-17T03:19:44;3.28;88.34
69715;HTU21D;56981;53.532;49.398;2022-10-17T03:22:16;3.47;87.93
69715;HTU21D;56981;53.532;49.398;2022-10-17T03:24:47;3.57;87.45
69715;HTU21D;56981;53.532;49.398;2022-10-17T03:27:19;3.72;86.94
69715;HTU21D;56981;53.532;49.398;2022-10-17T03:29:50;3.83;86.42
69715;HTU21D;56981;53.532;49.398;2022-10-17T03:32:21;3.95;86.28
69715;HTU21D;56981;53.532;49.398;2022-10-17T03:34:52;4.09;87.03
69715;HTU21D;56981;53.532;49.398;2022-10-17T03:37:24;4.53;88.04
69715;HTU21D;56981;53.532;49.398;2022-10-17T03:39:55;4.90;85.19
69715;HTU21D;56981;53.532;49.398;2022-10-17T03:42:26;5.65;83.96
69715;HTU21D;56981;53.532;49.398;2022-10-17T03:44:58;6.00;83.93
69715;HTU21D;56981;53.532;49.398;2022-10-17T03:47:29;6.17;83.68
69715;HTU21D;56981;53.532;49.398;2022-10-17T03:50:00;6.50;80.31
69715;HTU21D;56981;53.532;49.398;2022-10-17T03:52:32;6.30;79.21
69715;HTU21D;56981;53.532;49.398;2022-10-17T03:55:03;6.25;81.44
69715;HTU21D;56981;53.532;49.398;2022-10-17T03:57:34;6.23;81.20
69715;HTU21D;56981;53.532;49.398;2022-10-17T04:00:07;6.23;81.83
69715;HTU21D;56981;53.532;49.398;2022-10-17T04:02:39;6.22;82.73
69715;HTU21D;56981;53.532;49.398;2022-10-17T04:05:10;6.19;80.65
69715;HTU21D;56981;53.532;49.398;2022-10-17T04:07:41;6.89;78.82
69715;HTU21D;56981;53.532;49.398;2022-10-17T04:10:12;7.97;80.59
69715;HTU21D;56981;53.532;49.398;2022-10-17T04:12:44;9.54;75.25
69715;HTU21D;56981;53.532;49.398;2022-10-17T04:15:15;10.60;65.45
69715;HTU21D;56981;53.532;49.398;2022-10-17T04:17:46;11.72;62.69
69715;HTU21D;56981;53.532;49.398;2022-10-17T04:20:18;12.74;59.82
69715;HTU21D;56981;53.532;49.398;2022-10-17T04:22:49;13.56;56.32
69715;HTU21D;56981;53.532;49.398;2022-10-17T04:25:20;14.18;54.13
69715;HTU21D;56981;53.532;49.398;2022-10-17T04:27:51;14.87;52.72
69715;HTU21D;56981;53.532;49.398;2022-10-17T04:30:23;15.33;51.59
69715;HTU21D;56981;53.532;49.398;2022-10-17T04:32:54;15.87;49.68
69715;HTU21D;56981;53.532;49.398;2022-10-17T04:35:25;16.43;48.27
69715;HTU21D;56981;53.532;49.398;2022-10-17T04:37:57;16.92;47.34
69715;HTU21D;56981;53.532;49.398;2022-10-17T04:40:28;17.38;45.90
69715;HTU21D;56981;53.532;49.398;2022-10-17T04:42:59;17.81;45.46
69715;HTU21D;56981;53.532;49.398;2022-10-17T04:45:31;18.21;43.70
69715;HTU21D;56981;53.532;49.398;2022-10-17T04:48:02;17.72;45.38
69715;HTU21D;56981;53.532;49.398;2022-10-17T04:50:34;16.94;47.37
69715;HTU21D;56981;53.532;49.398;2022-10-17T04:53:06;16.80;47.92
69715;HTU21D;56981;53.532;49.398;2022-10-17T04:55:37;16.60;47.76
69715;HTU21D;56981;53.532;49.398;2022-10-17T04:58:09;16.57;48.05
69715;HTU21D;56981;53.532;49.398;2022-10-17T05:00:41;16.58;48.47
69715;HTU21D;56981;53.532;49.398;2022-10-17T05:03:16;17.24;46.70
69715;HTU21D;56981;53.532;49.398;2022-10-17T05:05:47;17.18;46.67
69715;HTU21D;56981;53.532;49.398;2022-10-17T05:08:18;16.92;47.28
69715;HTU21D;56981;53.532;49.398;2022-10-17T05:10:50;16.82;48.86
69715;HTU21D;56981;53.532;49.398;2022-10-17T05:13:21;16.81;47.41
69715;HTU21D;56981;53.532;49.398;2022-10-17T05:15:57;17.37;46.30
69715;HTU21D;56981;53.532;49.398;2022-10-17T05:18:29;16.87;47.13
69715;HTU21D;56981;53.532;49.398;2022-10-17T05:21:02;16.92;47.46
69715;HTU21D;56981;53.532;49.398;2022-10-17T05:23:34;17.03;47.60
69715;HTU21D;56981;53.532;49.398;2022-10-17T05:26:05;17.05;47.28
69715;HTU21D;56981;53.532;49.398;2022-10-17T05:28:38;17.26;46.86
69715;HTU21D;56981;53.532;49.398;2022-10-17T05:31:09;16.98;47.23
69715;HTU21D;56981;53.532;49.398;2022-10-17T05:33:43;16.70;48.72
69715;HTU21D;56981;53.532;49.398;2022-10-17T05:36:15;16.28;49.36
69715;HTU21D;56981;53.532;49.398;2022-10-17T05:38:52;15.54;51.87
69715;HTU21D;56981;53.532;49.398;2022-10-17T05:41:23;15.14;53.10
69715;HTU21D;56981;53.532;49.398;2022-10-17T05:43:55;14.88;54.26
69715;HTU21D;56981;53.532;49.398;2022-10-17T05:46:26;14.65;54.51
69715;HTU21D;56981;53.532;49.398;2022-10-17T05:49:00;14.42;55.85
69715;HTU21D;56981;53.532;49.398;2022-10-17T05:51:33;14.34;56.18
69715;HTU21D;56981;53.532;49.398;2022-10-17T05:54:06;14.44;56.09
69715;HTU21D;56981;53.532;49.398;2022-10-17T05:56:38;15.27;54.30
69715;HTU21D;56981;53.532;49.398;2022-10-17T05:59:09;15.97;51.82
69715;HTU21D;56981;53.532;49.398;2022-10-17T06:01:41;16.64;50.32
69715;HTU21D;56981;53.532;49.398;2022-10-17T06:04:13;17.03;49.15
69715;HTU21D;56981;53.532;49.398;2022-10-17T06:06:45;16.58;50.69
69715;HTU21D;56981;53.532;49.398;2022-10-17T06:09:17;16.35;51.50
69715;HTU21D;56981;53.532;49.398;2022-10-17T06:11:49;16.62;50.42
69715;HTU21D;56981;53.532;49.398;2022-10-17T06:14:21;16.91;49.79
69715;HTU21D;56981;53.532;49.398;2022-10-17T06:16:54;16.33;50.35
69715;HTU21D;56981;53.532;49.398;2022-10-17T06:19:26;16.41;50.02
69715;HTU21D;56981;53.532;49.398;2022-10-17T06:21:57;16.63;49.58
69715;HTU21D;56981;53.532;49.398;2022-10-17T06:24:29;16.90;48.34
69715;HTU21D;56981;53.532;49.398;2022-10-17T06:27:00;17.20;46.93
69715;HTU21D;56981;53.532;49.398;2022-10-17T06:29:32;17.37;47.22
69715;HTU21D;56981;53.532;49.398;2022-10-17T06:32:05;17.77;47.36
69715;HTU21D;56981;53.532;49.398;2022-10-17T06:34:40;17.60;47.02
69715;HTU21D;56981;53.532;49.398;2022-10-17T06:37:13;17.02;47.48
69715;HTU21D;56981;53.532;49.398;2022-10-17T06:39:46;16.42;48.34
69715;HTU21D;56981;53.532;49.398;2022-10-17T06:42:17;15.90;50.66
69715;HTU21D;56981;53.532;49.398;2022-10-17T06:44:49;15.57;51.65
69715;HTU21D;56981;53.532;49.398;2022-10-17T06:47:20;15.33;50.57
69715;HTU21D;56981;53.532;49.398;2022-10-17T06:49:52;14.82;52.75
69715;HTU21D;56981;53.532;49.398;2022-10-17T06:52:24;14.68;54.49
69715;HTU21D;56981;53.532;49.398;2022-10-17T06:54:55;14.65;53.86
69715;HTU21D;56981;53.532;49.398;2022-10-17T06:57:26;14.60;53.33
69715;HTU21D;56981;53.532;49.398;2022-10-17T06:59:58;14.66;54.11
69715;HTU21D;56981;53.532;49.398;2022-10-17T07:02:29;14.29;53.08
69715;HTU21D;56981;53.532;49.398;2022-10-17T07:05:01;14.21;54.60
69715;HTU21D;56981;53.532;49.398;2022-10-17T07:07:33;14.23;54.49
69715;HTU21D;56981;53.532;49.398;2022-10-17T07:10:05;14.18;54.82
69715;HTU21D;56981;53.532;49.398;2022-10-17T07:12:38;14.27;53.12
69715;HTU21D;56981;53.532;49.398;2022-10-17T07:15:10;14.50;53.22
69715;HTU21D;56981;53.532;49.398;2022-10-17T07:17:41;14.35;53.54
69715;HTU21D;56981;53.532;49.398;2022-10-17T07:20:13;14.26;55.06
69715;HTU21D;56981;53.532;49.398;2022-10-17T07:22:44;14.30;51.82
69715;HTU21D;56981;53.532;49.398;2022-10-17T07:25:19;14.14;52.75
69715;HTU21D;56981;53.532;49.398;2022-10-17T07:27:51;13.80;52.80
69715;HTU21D;56981;53.532;49.398;2022-10-17T07:30:24;13.68;53.17
69715;HTU21D;56981;53.532;49.398;2022-10-17T07:32:55;13.65;52.92
69715;HTU21D;56981;53.532;49.398;2022-10-17T07:35:27;13.52;53.23
69715;HTU21D;56981;53.532;49.398;2022-10-17T07:37:58;13.53;53.49
69715;HTU21D;56981;53.532;49.398;2022-10-17T07:40:30;13.47;52.94
69715;HTU21D;56981;53.532;49.398;2022-10-17T07:43:01;13.48;55.41
69715;HTU21D;56981;53.532;49.398;2022-10-17T07:45:33;13.46;53.88
69715;HTU21D;56981;53.532;49.398;2022-10-17T07:48:04;13.36;53.10
69715;HTU21D;56981;53.532;49.398;2022-10-17T07:50:36;13.29;54.14
69715;HTU21D;56981;53.532;49.398;2022-10-17T07:53:07;13.41;54.47
69715;HTU21D;56981;53.532;49.398;2022-10-17T07:55:40;13.77;52.47
69715;HTU21D;56981;53.532;49.398;2022-10-17T07:58:12;13.92;52.44
69715;HTU21D;56981;53.532;49.398;2022-10-17T08:00:43;14.05;53.05
69715;HTU21D;56981;53.532;49.398;2022-10-17T08:03:18;14.20;51.57
69715;HTU21D;56981;53.532;49.398;2022-10-17T08:05:49;14.39;51.23
69715;HTU21D;56981;53.532;49.398;2022-10-17T08:08:21;14.34;50.28
69715;HTU21D;56981;53.532;49.398;2022-10-17T08:10:53;14.35;51.53
69715;HTU21D;56981;53.532;49.398;2022-10-17T08:13:25;14.60;49.34
69715;HTU21D;56981;53.532;49.398;2022-10-17T08:16:05;14.13;49.93
69715;HTU21D;56981;53.532;49.398;2022-10-17T08:18:39;14.42;49.86
69715;HTU21D;56981;53.532;49.398;2022-10-17T08:21:11;14.40;49.12
69715;HTU21D;56981;53.532;49.398;2022-10-17T08:23:43;14.44;50.29
69715;HTU21D;56981;53.532;49.398;2022-10-17T08:26:16;14.45;49.22
69715;HTU21D;56981;53.532;49.398;2022-10-17T08:28:50;14.52;49.31
69715;HTU21D;56981;53.532;49.398;2022-10-17T08:31:21;14.48;48.00
69715;HTU21D;56981;53.532;49.398;2022-10-17T08:33:53;14.25;48.03
69715;HTU21D;56981;53.532;49.398;2022-10-17T08:36:24;14.22;48.56
69715;HTU21D;56981;53.532;49.398;2022-10-17T08:38:56;14.00;50.40
69715;HTU21D;56981;53.532;49.398;2022-10-17T08:46:54;13.82;49.93
69715;HTU21D;56981;53.532;49.398;2022-10-17T08:49:42;13.80;50.14
69715;HTU21D;56981;53.532;49.398;2022-10-17T08:52:40;13.68;51.12
69715;HTU21D;56981;53.532;49.398;2022-10-17T08:55:16;13.73;50.19
69715;HTU21D;56981;53.532;49.398;2022-10-17T08:57:48;13.67;49.21
69715;HTU21D;56981;53.532;49.398;2022-10-17T09:00:20;13.65;50.33
69715;HTU21D;56981;53.532;49.398;2022-10-17T09:20:17;13.24;50.71
69715;HTU21D;56981;53.532;49.398;2022-10-17T09:23:00;13.34;50.06
69715;HTU21D;56981;53.532;49.398;2022-10-17T09:25:40;13.24;50.53
69715;HTU21D;56981;53.532;49.398;2022-10-17T09:31:15;13.36;51.24
69715;HTU21D;56981;53.532;49.398;2022-10-17T09:33:50;13.31;49.73
69715;HTU21D;56981;53.532;49.398;2022-10-17T09:36:33;13.23;49.93
69715;HTU21D;56981;53.532;49.398;2022-10-17T09:39:15;13.35;50.71
69715;HTU21D;56981;53.532;49.398;2022-10-17T09:41:56;13.37;50.04
69715;HTU21D;56981;53.532;49.398;2022-10-17T09:44:41;13.20;49.52
69715;HTU21D;56981;53.532;49.398;2022-10-17T09:47:40;13.30;49.95
69715;HTU21D;56981;53.532;49.398;2022-10-17T09:50:32;13.27;49.47
69715;HTU21D;56981;53.532;49.398;2022-10-17T09:53:23;13.19;49.27
69715;HTU21D;56981;53.532;49.398;2022-10-17T09:56:01;13.20;50.24
69715;HTU21D;56981;53.532;49.398;2022-10-17T09:58:59;13.15;48.73
69715;HTU21D;56981;53.532;49.398;2022-10-17T10:01:30;13.10;49.65
69715;HTU21D;56981;53.532;49.398;2022-10-17T10:04:10;13.11;49.69
69715;HTU21D;56981;53.532;49.398;2022-10-17T10:07:02;13.03;48.66
69715;HTU21D;56981;53.532;49.398;2022-10-17T10:09:35;12.91;48.79
69715;HTU21D;56981;53.532;49.398;2022-10-17T10:12:20;12.99;49.28
69715;HTU21D;56981;53.532;49.398;2022-10-17T10:14:52;12.93;48.48
69715;HTU21D;56981;53.532;49.398;2022-10-17T10:17:33;13.00;48.29
69715;HTU21D;56981;53.532;49.398;2022-10-17T10:23:17;12.81;46.81
69715;HTU21D;56981;53.532;49.398;2022-10-17T10:25:54;12.75;48.99
69715;HTU21D;56981;53.532;49.398;2022-10-17T10:28:30;12.76;48.03
69715;HTU21D;56981;53.532;49.398;2022-10-17T10:31:05;12.71;48.02
69715;HTU21D;56981;53.532;49.398;2022-10-17T10:33:41;12.69;49.31
69715;HTU21D;56981;53.532;49.398;2022-10-17T10:36:18;12.70;48.78
69715;HTU21D;56981;53.532;49.398;2022-10-17T10:38:54;12.71;48.00
69715;HTU21D;56981;53.532;49.398;2022-10-17T10:41:26;12.72;47.12
69715;HTU21D;56981;53.532;49.398;2022-10-17T10:43:59;12.63;48.08
69715;HTU21D;56981;53.532;49.398;2022-10-17T10:46:30;12.57;48.02
69715;HTU21D;56981;53.532;49.398;2022-10-17T10:49:02;12.59;48.68
69715;HTU21D;56981;53.532;49.398;2022-10-17T10:56:52;12.53;49.76
69715;HTU21D;56981;53.532;49.398;2022-10-17T10:59:57;12.44;49.05
69715;HTU21D;56981;53.532;49.398;2022-10-17T11:02:37;12.48;48.38
69715;HTU21D;56981;53.532;49.398;2022-10-17T11:05:18;12.53;48.76
69715;HTU21D;56981;53.532;49.398;2022-10-17T11:08:16;12.51;49.33
69715;HTU21D;56981;53.532;49.398;2022-10-17T11:13:41;12.57;50.24
69715;HTU21D;56981;53.532;49.398;2022-10-17T11:16:45;12.37;49.47
69715;HTU21D;56981;53.532;49.398;2022-10-17T11:19:47;12.35;49.85
69715;HTU21D;56981;53.532;49.398;2022-10-17T11:22:30;12.32;49.88
69715;HTU21D;56981;53.532;49.398;2022-10-17T11:27:56;12.27;51.17
69715;HTU21D;56981;53.532;49.398;2022-10-17T11:30:38;12.26;50.79
69715;HTU21D;56981;53.532;49.398;2022-10-17T11:33:14;12.30;50.72
69715;HTU21D;56981;53.532;49.398;2022-10-17T11:35:50;12.22;51.24
69715;HTU21D;56981;53.532;49.398;2022-10-17T11:38:31;12.19;49.21
69715;HTU21D;56981;53.532;49.398;2022-10-17T11:41:10;12.18;50.31
69715;HTU21D;56981;53.532;49.398;2022-10-17T11:47:03;12.17;51.12
69715;HTU21D;56981;53.532;49.398;2022-10-17T11:49:42;12.12;52.26
69715;HTU21D;56981;53.532;49.398;2022-10-17T11:55:00;12.00;52.07
69715;HTU21D;56981;53.532;49.398;2022-10-17T12:03:51;11.84;54.36
69715;HTU21D;56981;53.532;49.398;2022-10-17T12:09:32;11.85;53.90
69715;HTU21D;56981;53.532;49.398;2022-10-17T12:12:05;11.77;54.01
69715;HTU21D;56981;53.532;49.398;2022-10-17T12:14:47;11.79;54.70
69715;HTU21D;56981;53.532;49.398;2022-10-17T12:22:46;11.66;54.05
69715;HTU21D;56981;53.532;49.398;2022-10-17T12:25:25;11.60;53.83
69715;HTU21D;56981;53.532;49.398;2022-10-17T12:30:36;11.52;53.29
69715;HTU21D;56981;53.532;49.398;2022-10-17T12:46:57;11.14;55.71
69715;HTU21D;56981;53.532;49.398;2022-10-17T12:55:10;11.03;54.99
69715;HTU21D;56981;53.532;49.398;2022-10-17T12:58:02;10.96;55.54
69715;HTU21D;56981;53.532;49.398;2022-10-17T13:00:36;10.88;55.52
69715;HTU21D;56981;53.532;49.398;2022-10-17T13:03:15;10.88;55.12
69715;HTU21D;56981;53.532;49.398;2022-10-17T13:05:53;10.80;56.31
69715;HTU21D;56981;53.532;49.398;2022-10-17T13:08:31;10.75;57.24
69715;HTU21D;56981;53.532;49.398;2022-10-17T13:11:04;10.67;56.97
69715;HTU21D;56981;53.532;49.398;2022-10-17T13:13:42;10.63;55.87
69715;HTU21D;56981;53.532;49.398;2022-10-17T13:16:40;10.56;56.83
69715;HTU21D;56981;53.532;49.398;2022-10-17T13:19:28;10.48;56.41
69715;HTU21D;56981;53.532;49.398;2022-10-17T13:22:02;10.45;56.84
69715;HTU21D;56981;53.532;49.398;2022-10-17T13:24:39;10.39;57.54
69715;HTU21D;56981;53.532;49.398;2022-10-17T13:29:59;10.22;58.51
69715;HTU21D;56981;53.532;49.398;2022-10-17T13:32:37;10.18;58.40
69715;HTU21D;56981;53.532;49.398;2022-10-17T13:35:12;10.10;59.64
69715;HTU21D;56981;53.532;49.398;2022-10-17T13:37:45;10.07;59.83
69715;HTU21D;56981;53.532;49.398;2022-10-17T13:40:19;9.96;60.04
69715;HTU21D;56981;53.532;49.398;2022-10-17T13:42:53;9.90;60.09
69715;HTU21D;56981;53.532;49.398;2022-10-17T13:45:29;9.88;60.80
69715;HTU21D;56981;53.532;49.398;2022-10-17T13:48:03;9.78;60.31
69715;HTU21D;56981;53.532;49.398;2022-10-17T13:50:37;9.72;61.41
69715;HTU21D;56981;53.532;49.398;2022-10-17T13:55:57;9.62;61.15
69715;HTU21D;56981;53.532;49.398;2022-10-17T13:58:41;9.60;61.18
69715;HTU21D;56981;53.532;49.398;2022-10-17T14:01:13;9.55;61.84
69715;HTU21D;56981;53.532;49.398;2022-10-17T14:03:46;9.49;62.05
69715;HTU21D;56981;53.532;49.398;2022-10-17T14:06:26;9.46;62.53
69715;HTU21D;56981;53.532;49.398;2022-10-17T14:09:00;9.40;63.06
69715;HTU21D;56981;53.532;49.398;2022-10-17T14:11:40;9.31;63.93
69715;HTU21D;56981;53.532;49.398;2022-10-17T14:14:22;9.23;64.33
69715;HTU21D;56981;53.532;49.398;2022-10-17T14:16:55;9.22;64.33
69715;HTU21D;56981;53.532;49.398;2022-10-17T14:19:32;9.14;64.98
69715;HTU21D;56981;53.532;49.398;2022-10-17T14:24:53;9.09;64.80
69715;HTU21D;56981;53.532;49.398;2022-10-17T14:32:49;9.04;65.69
69715;HTU21D;56981;53.532;49.398;2022-10-17T14:35:23;9.01;65.62
69715;HTU21D;56981;53.532;49.398;2022-10-17T14:37:59;8.97;66.13
69715;HTU21D;56981;53.532;49.398;2022-10-17T14:40:32;8.96;65.88
69715;HTU21D;56981;53.532;49.398;2022-10-17T14:43:05;8.92;66.07
69715;HTU21D;56981;53.532;49.398;2022-10-17T14:45:37;8.92;66.18
69715;HTU21D;56981;53.532;49.398;2022-10-17T14:48:15;8.89;66.83
69715;HTU21D;56981;53.532;49.398;2022-10-17T14:51:06;8.86;67.01
69715;HTU21D;56981;53.532;49.398;2022-10-17T14:53:39;8.85;67.01
69715;HTU21D;56981;53.532;49.398;2022-10-17T14:56:22;8.79;68.22
69715;HTU21D;56981;53.532;49.398;2022-10-17T14:58:56;8.74;67.94
69715;HTU21D;56981;53.532;49.398;2022-10-17T15:01:39;8.75;68.84
69715;HTU21D;56981;53.532;49.398;2022-10-17T15:04:17;8.76;68.25
69715;HTU21D;56981;53.532;49.398;2022-10-17T15:06:54;8.76;69.34
69715;HTU21D;56981;53.532;49.398;2022-10-17T15:09:25;8.71;68.82
69715;HTU21D;56981;53.532;49.398;2022-10-17T15:11:59;8.70;69.04
69715;HTU21D;56981;53.532;49.398;2022-10-17T15:14:32;8.64;68.89
69715;HTU21D;56981;53.532;49.398;2022-10-17T15:17:13;8.61;69.01
69715;HTU21D;56981;53.532;49.398;2022-10-17T15:19:46;8.63;68.86
69715;HTU21D;56981;53.532;49.398;2022-10-17T15:22:17;8.61;68.38
69715;HTU21D;56981;53.532;49.398;2022-10-17T15:24:49;8.62;67.31
69715;HTU21D;56981;53.532;49.398;2022-10-17T15:27:22;8.67;67.61
69715;HTU21D;56981;53.532;49.398;2022-10-17T15:29:54;8.73;66.62
69715;HTU21D;56981;53.532;49.398;2022-10-17T15:36:35;8.74;66.29
69715;HTU21D;56981;53.532;49.398;2022-10-17T15:39:08;8.72;67.73
69715;HTU21D;56981;53.532;49.398;2022-10-17T15:41:39;8.70;67.46
69715;HTU21D;56981;53.532;49.398;2022-10-17T15:44:11;8.67;67.91
69715;HTU21D;56981;53.532;49.398;2022-10-17T15:46:43;8.68;67.86
69715;HTU21D;56981;53.532;49.398;2022-10-17T15:49:18;8.66;67.83
69715;HTU21D;56981;53.532;49.398;2022-10-17T15:51:52;8.67;68.06
69715;HTU21D;56981;53.532;49.398;2022-10-17T15:54:23;8.70;68.38
69715;HTU21D;56981;53.532;49.398;2022-10-17T15:56:54;8.66;68.67
69715;HTU21D;56981;53.532;49.398;2022-10-17T15:59:31;8.66;68.55
69715;HTU21D;56981;53.532;49.398;2022-10-17T16:02:03;8.65;69.09
69715;HTU21D;56981;53.532;49.398;2022-10-17T16:04:34;8.61;69.65
69715;HTU21D;56981;53.532;49.398;2022-10-17T16:07:06;8.59;69.33
69715;HTU21D;56981;53.532;49.398;2022-10-17T16:09:38;8.58;69.46
69715;HTU21D;56981;53.532;49.398;2022-10-17T16:12:13;8.58;70.26
69715;HTU21D;56981;53.532;49.398;2022-10-17T16:14:45;8.58;69.80
69715;HTU21D;56981;53.532;49.398;2022-10-17T16:17:17;8.53;70.50
69715;HTU21D;56981;53.532;49.398;2022-10-17T16:19:48;8.55;70.77
69715;HTU21D;56981;53.532;49.398;2022-10-17T16:22:25;8.53;70.79
69715;HTU21D;56981;53.532;49.398;2022-10-17T16:25:02;8.51;70.82
69715;HTU21D;56981;53.532;49.398;2022-10-17T16:27:40;8.48;71.28
69715;HTU21D;56981;53.532;49.398;2022-10-17T16:30:15;8.48;71.71
69715;HTU21D;56981;53.532;49.398;2022-10-17T16:32:53;8.51;71.88
69715;HTU21D;56981;53.532;49.398;2022-10-17T16:35:28;8.50;72.25
69715;HTU21D;56981;53.532;49.398;2022-10-17T16:38:00;8.43;72.68
69715;HTU21D;56981;53.532;49.398;2022-10-17T16:40:31;8.41;72.80
69715;HTU21D;56981;53.532;49.398;2022-10-17T16:43:02;8.37;73.12
69715;HTU21D;56981;53.532;49.398;2022-10-17T16:45:35;8.36;73.40
69715;HTU21D;56981;53.532;49.398;2022-10-17T16:48:07;8.41;73.27
69715;HTU21D;56981;53.532;49.398;2022-10-17T16:50:39;8.46;73.54
69715;HTU21D;56981;53.532;49.398;2022-10-17T16:53:10;8.41;73.72
69715;HTU21D;56981;53.532;49.398;2022-10-17T16:55:42;8.41;74.15
69715;HTU21D;56981;53.532;49.398;2022-10-17T16:58:13;8.38;74.47
69715;HTU21D;56981;53.532;49.398;2022-10-17T17:00:45;8.39;74.54
69715;HTU21D;56981;53.532;49.398;2022-10-17T17:03:16;8.38;75.36
69715;HTU21D;56981;53.532;49.398;2022-10-17T17:05:51;8.39;75.13
69715;HTU21D;56981;53.532;49.398;2022-10-17T17:08:22;8.41;75.08
69715;HTU21D;56981;53.532;49.398;2022-10-17T17:10:54;8.39;75.27
69715;HTU21D;56981;53.532;49.398;2022-10-17T17:13:27;8.36;75.04
69715;HTU21D;56981;53.532;49.398;2022-10-17T17:18:35;8.36;75.15
69715;HTU21D;56981;53.532;49.398;2022-10-17T17:21:08;8.35;75.20
69715;HTU21D;56981;53.532;49.398;2022-10-17T17:23:43;8.33;75.35
69715;HTU21D;56981;53.532;49.398;2022-10-17T17:26:17;8.31;75.67
69715;HTU21D;56981;53.532;49.398;2022-10-17T17:28:53;8.32;75.60
69715;HTU21D;56981;53.532;49.398;2022-10-17T17:31:28;8.31;75.76
69715;HTU21D;56981;53.532;49.398;2022-10-17T17:34:00;8.34;75.62
69715;HTU21D;56981;53.532;49.398;2022-10-17T17:36:34;8.34;75.72
69715;HTU21D;56981;53.532;49.398;2022-10-17T17:39:09;8.35;76.03
69715;HTU21D;56981;53.532;49.398;2022-10-17T17:41:42;8.35;76.35
69715;HTU21D;56981;53.532;49.398;2022-10-17T17:44:14;8.32;76.50
69715;HTU21D;56981;53.532;49.398;2022-10-17T17:46:45;8.31;76.73
69715;HTU21D;56981;53.532;49.398;2022-10-17T17:49:17;8.29;76.82
69715;HTU21D;56981;53.532;49.398;2022-10-17T17:51:49;8.27;76.41
69715;HTU21D;56981;53.532;49.398;2022-10-17T17:54:20;8.24;76.53
69715;HTU21D;56981;53.532;49.398;2022-10-17T17:56:52;8.23;76.74
69715;HTU21D;56981;53.532;49.398;2022-10-17T17:59:23;8.26;76.57
69715;HTU21D;56981;53.532;49.398;2022-10-17T18:01:54;8.22;77.14
69715;HTU21D;56981;53.532;49.398;2022-10-17T18:04:26;8.23;77.25
69715;HTU21D;56981;53.532;49.398;2022-10-17T18:06:58;8.21;77.50
69715;HTU21D;56981;53.532;49.398;2022-10-17T18:09:29;8.19;77.74
69715;HTU21D;56981;53.532;49.398;2022-10-17T18:12:00;8.16;78.18
69715;HTU21D;56981;53.532;49.398;2022-10-17T18:14:32;8.11;77.94